sensor_id;sensor_type;location;lat;lon;timestamp;P1;durP1;ratioP1;P2;durP2;ratioP2
2618;SDS011;1319;52.346;13.096;2023-11-22T00:00:10;21.33;;;9.37;;
2618;SDS011;1319;52.346;13.096;2023-11-22T00:02:35;24.73;;;9.93;;
2618;SDS011;1319;52.346;13.096;2023-11-22T00:05:01;20.27;;;9.00;;
2618;SDS011;1319;52.346;13.096;2023-11-22T00:07:28;22.33;;;9.50;;
2618;SDS011;1319;52.346;13.096;2023-11-22T00:09:54;23.63;;;9.20;;
2618;SDS011;1319;52.346;13.096;2023-11-22T00:12:19;19.60;;;9.50;;
2618;SDS011;1319;52.346;13.096;2023-11-22T00:14:44;21.20;;;8.40;;
2618;SDS011;1319;52.346;13.096;2023-11-22T00:17:11;19.27;;;9.00;;
2618;SDS011;1319;52.346;13.096;2023-11-22T00:19:36;19.73;;;8.53;;
2618;SDS011;1319;52.346;13.096;2023-11-22T00:22:01;18.87;;;8.93;;
2618;SDS011;1319;52.346;13.096;2023-11-22T00:24:30;16.73;;;8.17;;
2618;SDS011;1319;52.346;13.096;2023-11-22T00:26:55;18.63;;;8.33;;
2618;SDS011;1319;52.346;13.096;2023-11-22T00:29:21;23.70;;;9.03;;
2618;SDS011;1319;52.346;13.096;2023-11-22T00:31:46;23.07;;;8.27;;
2618;SDS011;1319;52.346;13.096;2023-11-22T00:34:11;19.47;;;8.67;;
2618;SDS011;1319;52.346;13.096;2023-11-22T00:36:37;19.70;;;8.43;;
2618;SDS011;1319;52.346;13.096;2023-11-22T00:39:02;16.20;;;8.10;;
2618;SDS011;1319;52.346;13.096;2023-11-22T00:41:31;18.53;;;8.13;;
2618;SDS011;1319;52.346;13.096;2023-11-22T00:43:57;17.50;;;7.83;;
2618;SDS011;1319;52.346;13.096;2023-11-22T00:46:22;18.80;;;9.20;;
2618;SDS011;1319;52.346;13.096;2023-11-22T00:48:47;17.40;;;7.73;;
2618;SDS011;1319;52.346;13.096;2023-11-22T00:51:12;18.17;;;8.20;;
2618;SDS011;1319;52.346;13.096;2023-11-22T00:53:38;20.50;;;8.07;;
2618;SDS011;1319;52.346;13.096;2023-11-22T00:56:04;13.93;;;7.37;;
2618;SDS011;1319;52.346;13.096;2023-11-22T00:58:30;17.43;;;8.20;;
2618;SDS011;1319;52.346;13.096;2023-11-22T01:00:55;20.03;;;8.27;;
2618;SDS011;1319;52.346;13.096;2023-11-22T01:03:20;18.20;;;7.77;;
2618;SDS011;1319;52.346;13.096;2023-11-22T01:05:45;19.47;;;8.23;;
2618;SDS011;1319;52.346;13.096;2023-11-22T01:08:11;14.60;;;7.70;;
2618;SDS011;1319;52.346;13.096;2023-11-22T01:10:38;16.70;;;7.53;;
2618;SDS011;1319;52.346;13.096;2023-11-22T01:13:04;18.20;;;7.53;;
2618;SDS011;1319;52.346;13.096;2023-11-22T01:15:29;16.37;;;7.37;;
2618;SDS011;1319;52.346;13.096;2023-11-22T01:17:54;16.43;;;7.63;;
2618;SDS011;1319;52.346;13.096;2023-11-22T01:20:20;18.47;;;8.43;;
2618;SDS011;1319;52.346;13.096;2023-11-22T01:22:47;19.43;;;7.87;;
2618;SDS011;1319;52.346;13.096;2023-11-22T01:25:12;20.90;;;8.00;;
2618;SDS011;1319;52.346;13.096;2023-11-22T01:27:38;20.67;;;8.23;;
2618;SDS011;1319;52.346;13.096;2023-11-22T01:30:03;16.63;;;7.47;;
2618;SDS011;1319;52.346;13.096;2023-11-22T01:32:29;20.83;;;7.60;;
2618;SDS011;1319;52.346;13.096;2023-11-22T01:34:54;18.97;;;7.87;;
2618;SDS011;1319;52.346;13.096;2023-11-22T01:37:22;18.33;;;7.77;;
2618;SDS011;1319;52.346;13.096;2023-11-22T01:39:47;19.17;;;7.57;;
2618;SDS011;1319;52.346;13.096;2023-11-22T01:42:13;17.37;;;8.13;;
2618;SDS011;1319;52.346;13.096;2023-11-22T01:44:39;16.43;;;7.40;;
2618;SDS011;1319;52.346;13.096;2023-11-22T01:47:06;19.80;;;7.83;;
2618;SDS011;1319;52.346;13.096;2023-11-22T01:49:32;18.87;;;7.47;;
2618;SDS011;1319;52.346;13.096;2023-11-22T01:51:57;20.53;;;7.87;;
2618;SDS011;1319;52.346;13.096;2023-11-22T01:54:23;19.00;;;7.43;;
2618;SDS011;1319;52.346;13.096;2023-11-22T01:56:49;16.90;;;7.90;;
2618;SDS011;1319;52.346;13.096;2023-11-22T01:59:15;18.13;;;7.80;;
2618;SDS011;1319;52.346;13.096;2023-11-22T02:01:40;21.87;;;8.13;;
2618;SDS011;1319;52.346;13.096;2023-11-22T02:04:05;18.70;;;7.90;;
2618;SDS011;1319;52.346;13.096;2023-11-22T02:06:31;16.33;;;7.37;;
2618;SDS011;1319;52.346;13.096;2023-11-22T02:08:56;13.97;;;6.97;;
2618;SDS011;1319;52.346;13.096;2023-11-22T02:11:22;14.80;;;7.10;;
2618;SDS011;1319;52.346;13.096;2023-11-22T02:13:47;20.70;;;7.30;;
2618;SDS011;1319;52.346;13.096;2023-11-22T02:16:13;17.40;;;7.33;;
2618;SDS011;1319;52.346;13.096;2023-11-22T02:18:38;13.87;;;6.70;;
2618;SDS011;1319;52.346;13.096;2023-11-22T02:21:03;14.77;;;7.33;;
2618;SDS011;1319;52.346;13.096;2023-11-22T02:23:29;17.07;;;7.43;;
2618;SDS011;1319;52.346;13.096;2023-11-22T02:25:54;18.87;;;8.20;;
2618;SDS011;1319;52.346;13.096;2023-11-22T02:28:19;18.80;;;7.57;;
2618;SDS011;1319;52.346;13.096;2023-11-22T02:30:44;19.53;;;7.93;;
2618;SDS011;1319;52.346;13.096;2023-11-22T02:33:10;21.57;;;8.13;;
2618;SDS011;1319;52.346;13.096;2023-11-22T02:35:35;16.37;;;7.57;;
2618;SDS011;1319;52.346;13.096;2023-11-22T02:38:00;18.80;;;7.80;;
2618;SDS011;1319;52.346;13.096;2023-11-22T02:40:26;20.43;;;7.77;;
2618;SDS011;1319;52.346;13.096;2023-11-22T02:42:52;19.27;;;8.10;;
2618;SDS011;1319;52.346;13.096;2023-11-22T02:45:18;20.07;;;8.47;;
2618;SDS011;1319;52.346;13.096;2023-11-22T02:47:44;16.03;;;8.23;;
2618;SDS011;1319;52.346;13.096;2023-11-22T02:50:09;20.60;;;8.17;;
2618;SDS011;1319;52.346;13.096;2023-11-22T02:52:35;21.33;;;8.73;;
2618;SDS011;1319;52.346;13.096;2023-11-22T02:55:00;21.43;;;8.27;;
2618;SDS011;1319;52.346;13.096;2023-11-22T02:57:25;20.30;;;8.37;;
2618;SDS011;1319;52.346;13.096;2023-11-22T02:59:51;17.67;;;8.00;;
2618;SDS011;1319;52.346;13.096;2023-11-22T03:02:17;23.23;;;9.20;;
2618;SDS011;1319;52.346;13.096;2023-11-22T03:04:42;20.93;;;8.90;;
2618;SDS011;1319;52.346;13.096;2023-11-22T03:07:08;19.30;;;8.47;;
2618;SDS011;1319;52.346;13.096;2023-11-22T03:09:33;15.33;;;7.37;;
2618;SDS011;1319;52.346;13.096;2023-11-22T03:11:59;17.73;;;8.30;;
2618;SDS011;1319;52.346;13.096;2023-11-22T03:14:24;21.83;;;8.60;;
2618;SDS011;1319;52.346;13.096;2023-11-22T03:16:50;17.23;;;8.27;;
2618;SDS011;1319;52.346;13.096;2023-11-22T03:19:15;21.67;;;8.80;;
2618;SDS011;1319;52.346;13.096;2023-11-22T03:21:40;18.37;;;8.07;;
2618;SDS011;1319;52.346;13.096;2023-11-22T03:24:09;21.97;;;8.00;;
2618;SDS011;1319;52.346;13.096;2023-11-22T03:26:34;17.70;;;7.47;;
2618;SDS011;1319;52.346;13.096;2023-11-22T03:28:59;19.97;;;7.90;;
2618;SDS011;1319;52.346;13.096;2023-11-22T03:31:25;15.83;;;7.70;;
2618;SDS011;1319;52.346;13.096;2023-11-22T03:33:51;16.57;;;7.97;;
2618;SDS011;1319;52.346;13.096;2023-11-22T03:36:16;17.40;;;7.67;;
2618;SDS011;1319;52.346;13.096;2023-11-22T03:38:41;17.20;;;7.73;;
2618;SDS011;1319;52.346;13.096;2023-11-22T03:41:06;19.83;;;8.00;;
2618;SDS011;1319;52.346;13.096;2023-11-22T03:43:32;14.87;;;8.03;;
2618;SDS011;1319;52.346;13.096;2023-11-22T03:45:57;16.07;;;7.10;;
2618;SDS011;1319;52.346;13.096;2023-11-22T03:48:22;16.13;;;7.10;;
2618;SDS011;1319;52.346;13.096;2023-11-22T03:50:48;16.87;;;7.17;;
2618;SDS011;1319;52.346;13.096;2023-11-22T03:53:14;16.23;;;7.53;;
2618;SDS011;1319;52.346;13.096;2023-11-22T03:55:39;15.80;;;7.13;;
2618;SDS011;1319;52.346;13.096;2023-11-22T03:58:04;13.67;;;6.63;;
2618;SDS011;1319;52.346;13.096;2023-11-22T04:00:29;16.47;;;7.30;;
2618;SDS011;1319;52.346;13.096;2023-11-22T04:02:55;15.23;;;6.03;;
2618;SDS011;1319;52.346;13.096;2023-11-22T04:05:22;16.10;;;7.60;;
2618;SDS011;1319;52.346;13.096;2023-11-22T04:07:47;16.07;;;7.47;;
2618;SDS011;1319;52.346;13.096;2023-11-22T04:10:12;13.13;;;6.57;;
2618;SDS011;1319;52.346;13.096;2023-11-22T04:12:37;13.97;;;7.00;;
2618;SDS011;1319;52.346;13.096;2023-11-22T04:15:03;11.53;;;6.07;;
2618;SDS011;1319;52.346;13.096;2023-11-22T04:17:29;15.67;;;6.83;;
2618;SDS011;1319;52.346;13.096;2023-11-22T04:19:54;13.83;;;6.80;;
2618;SDS011;1319;52.346;13.096;2023-11-22T04:22:19;9.47;;;6.37;;
2618;SDS011;1319;52.346;13.096;2023-11-22T04:24:44;14.67;;;7.03;;
2618;SDS011;1319;52.346;13.096;2023-11-22T04:27:10;17.10;;;7.07;;
2618;SDS011;1319;52.346;13.096;2023-11-22T04:29:36;17.20;;;6.63;;
2618;SDS011;1319;52.346;13.096;2023-11-22T04:32:01;13.37;;;6.97;;
2618;SDS011;1319;52.346;13.096;2023-11-22T04:34:27;16.27;;;7.00;;
2618;SDS011;1319;52.346;13.096;2023-11-22T04:36:53;13.80;;;6.97;;
2618;SDS011;1319;52.346;13.096;2023-11-22T04:39:18;12.93;;;6.87;;
2618;SDS011;1319;52.346;13.096;2023-11-22T04:41:43;14.90;;;7.33;;
2618;SDS011;1319;52.346;13.096;2023-11-22T04:44:08;14.23;;;6.83;;
2618;SDS011;1319;52.346;13.096;2023-11-22T04:46:34;14.50;;;7.03;;
2618;SDS011;1319;52.346;13.096;2023-11-22T04:48:59;12.57;;;6.33;;
2618;SDS011;1319;52.346;13.096;2023-11-22T04:51:24;11.87;;;6.37;;
2618;SDS011;1319;52.346;13.096;2023-11-22T04:53:50;13.13;;;6.33;;
2618;SDS011;1319;52.346;13.096;2023-11-22T04:56:16;11.37;;;6.20;;
2618;SDS011;1319;52.346;13.096;2023-11-22T04:58:41;13.47;;;6.67;;
2618;SDS011;1319;52.346;13.096;2023-11-22T05:01:07;17.13;;;5.80;;
2618;SDS011;1319;52.346;13.096;2023-11-22T05:03:35;10.47;;;5.87;;
2618;SDS011;1319;52.346;13.096;2023-11-22T05:06:00;15.17;;;6.87;;
2618;SDS011;1319;52.346;13.096;2023-11-22T05:08:25;13.37;;;5.77;;
2618;SDS011;1319;52.346;13.096;2023-11-22T05:10:50;11.63;;;6.00;;
2618;SDS011;1319;52.346;13.096;2023-11-22T05:13:15;12.77;;;6.00;;
2618;SDS011;1319;52.346;13.096;2023-11-22T05:15:41;15.90;;;6.87;;
2618;SDS011;1319;52.346;13.096;2023-11-22T05:18:06;13.93;;;6.73;;
2618;SDS011;1319;52.346;13.096;2023-11-22T05:20:31;14.07;;;7.00;;
2618;SDS011;1319;52.346;13.096;2023-11-22T05:22:57;17.03;;;7.07;;
2618;SDS011;1319;52.346;13.096;2023-11-22T05:25:23;16.93;;;6.90;;
2618;SDS011;1319;52.346;13.096;2023-11-22T05:27:49;13.57;;;6.93;;
2618;SDS011;1319;52.346;13.096;2023-11-22T05:30:15;21.97;;;7.77;;
2618;SDS011;1319;52.346;13.096;2023-11-22T05:32:41;19.57;;;8.17;;
2618;SDS011;1319;52.346;13.096;2023-11-22T05:35:07;15.90;;;7.70;;
2618;SDS011;1319;52.346;13.096;2023-11-22T05:37:35;15.43;;;7.57;;
2618;SDS011;1319;52.346;13.096;2023-11-22T05:40:01;11.73;;;6.90;;
2618;SDS011;1319;52.346;13.096;2023-11-22T05:42:28;13.73;;;6.50;;
2618;SDS011;1319;52.346;13.096;2023-11-22T05:44:53;11.20;;;6.77;;
2618;SDS011;1319;52.346;13.096;2023-11-22T05:47:19;22.23;;;6.87;;
2618;SDS011;1319;52.346;13.096;2023-11-22T05:49:44;13.40;;;6.63;;
2618;SDS011;1319;52.346;13.096;2023-11-22T05:52:09;14.80;;;7.27;;
2618;SDS011;1319;52.346;13.096;2023-11-22T05:54:35;13.60;;;7.20;;
2618;SDS011;1319;52.346;13.096;2023-11-22T05:57:00;17.30;;;6.90;;
2618;SDS011;1319;52.346;13.096;2023-11-22T05:59:25;20.53;;;8.07;;
2618;SDS011;1319;52.346;13.096;2023-11-22T06:01:51;15.23;;;7.77;;
2618;SDS011;1319;52.346;13.096;2023-11-22T06:04:16;14.70;;;7.67;;
2618;SDS011;1319;52.346;13.096;2023-11-22T06:06:41;19.93;;;7.90;;
2618;SDS011;1319;52.346;13.096;2023-11-22T06:09:07;19.47;;;7.87;;
2618;SDS011;1319;52.346;13.096;2023-11-22T06:11:32;18.10;;;7.57;;
2618;SDS011;1319;52.346;13.096;2023-11-22T06:13:57;17.47;;;7.57;;
2618;SDS011;1319;52.346;13.096;2023-11-22T06:16:23;22.30;;;9.23;;
2618;SDS011;1319;52.346;13.096;2023-11-22T06:18:48;21.07;;;9.13;;
2618;SDS011;1319;52.346;13.096;2023-11-22T06:21:13;18.23;;;7.70;;
2618;SDS011;1319;52.346;13.096;2023-11-22T06:23:39;22.33;;;7.77;;
2618;SDS011;1319;52.346;13.096;2023-11-22T06:26:04;19.10;;;7.80;;
2618;SDS011;1319;52.346;13.096;2023-11-22T06:28:29;17.70;;;7.03;;
2618;SDS011;1319;52.346;13.096;2023-11-22T06:30:54;18.93;;;6.83;;
2618;SDS011;1319;52.346;13.096;2023-11-22T06:33:20;18.57;;;7.20;;
2618;SDS011;1319;52.346;13.096;2023-11-22T06:35:45;18.60;;;7.27;;
2618;SDS011;1319;52.346;13.096;2023-11-22T06:38:10;15.37;;;7.63;;
2618;SDS011;1319;52.346;13.096;2023-11-22T06:40:35;15.53;;;7.27;;
2618;SDS011;1319;52.346;13.096;2023-11-22T06:43:01;12.53;;;6.30;;
2618;SDS011;1319;52.346;13.096;2023-11-22T06:45:29;16.27;;;5.80;;
2618;SDS011;1319;52.346;13.096;2023-11-22T06:47:56;20.93;;;7.27;;
2618;SDS011;1319;52.346;13.096;2023-11-22T06:50:21;13.77;;;7.00;;
2618;SDS011;1319;52.346;13.096;2023-11-22T06:52:46;14.60;;;7.07;;
2618;SDS011;1319;52.346;13.096;2023-11-22T06:55:14;13.53;;;6.60;;
2618;SDS011;1319;52.346;13.096;2023-11-22T06:57:39;14.60;;;7.17;;
2618;SDS011;1319;52.346;13.096;2023-11-22T07:00:06;16.60;;;6.77;;
2618;SDS011;1319;52.346;13.096;2023-11-22T07:02:35;12.07;;;6.43;;
2618;SDS011;1319;52.346;13.096;2023-11-22T07:05:00;16.30;;;7.00;;
2618;SDS011;1319;52.346;13.096;2023-11-22T07:07:26;18.73;;;7.73;;
2618;SDS011;1319;52.346;13.096;2023-11-22T07:09:51;17.53;;;7.50;;
2618;SDS011;1319;52.346;13.096;2023-11-22T07:12:17;15.97;;;7.50;;
2618;SDS011;1319;52.346;13.096;2023-11-22T07:14:44;15.87;;;7.27;;
2618;SDS011;1319;52.346;13.096;2023-11-22T07:17:09;18.70;;;7.83;;
2618;SDS011;1319;52.346;13.096;2023-11-22T07:19:35;17.37;;;7.10;;
2618;SDS011;1319;52.346;13.096;2023-11-22T07:22:06;15.43;;;7.50;;
2618;SDS011;1319;52.346;13.096;2023-11-22T07:24:41;15.53;;;7.53;;
2618;SDS011;1319;52.346;13.096;2023-11-22T07:27:08;20.07;;;7.80;;
2618;SDS011;1319;52.346;13.096;2023-11-22T07:29:37;17.93;;;7.50;;
2618;SDS011;1319;52.346;13.096;2023-11-22T07:32:02;19.47;;;7.80;;
2618;SDS011;1319;52.346;13.096;2023-11-22T07:34:27;25.90;;;8.83;;
2618;SDS011;1319;52.346;13.096;2023-11-22T07:36:53;19.03;;;8.23;;
2618;SDS011;1319;52.346;13.096;2023-11-22T07:39:19;21.00;;;8.30;;
2618;SDS011;1319;52.346;13.096;2023-11-22T07:41:52;21.67;;;8.73;;
2618;SDS011;1319;52.346;13.096;2023-11-22T07:44:17;21.77;;;9.33;;
2618;SDS011;1319;52.346;13.096;2023-11-22T07:46:43;23.13;;;9.33;;
2618;SDS011;1319;52.346;13.096;2023-11-22T07:49:09;21.63;;;8.83;;
2618;SDS011;1319;52.346;13.096;2023-11-22T07:51:34;22.40;;;8.57;;
2618;SDS011;1319;52.346;13.096;2023-11-22T07:54:00;25.20;;;9.60;;
2618;SDS011;1319;52.346;13.096;2023-11-22T07:56:25;25.93;;;10.27;;
2618;SDS011;1319;52.346;13.096;2023-11-22T07:58:50;27.63;;;9.83;;
2618;SDS011;1319;52.346;13.096;2023-11-22T08:01:15;25.63;;;11.30;;
2618;SDS011;1319;52.346;13.096;2023-11-22T08:03:41;28.87;;;10.50;;
2618;SDS011;1319;52.346;13.096;2023-11-22T08:06:10;29.17;;;11.67;;
2618;SDS011;1319;52.346;13.096;2023-11-22T08:08:36;22.80;;;11.23;;
2618;SDS011;1319;52.346;13.096;2023-11-22T08:11:05;27.53;;;10.73;;
2618;SDS011;1319;52.346;13.096;2023-11-22T08:13:40;26.07;;;11.47;;
2618;SDS011;1319;52.346;13.096;2023-11-22T08:16:05;27.00;;;12.03;;
2618;SDS011;1319;52.346;13.096;2023-11-22T08:18:31;30.77;;;11.90;;
2618;SDS011;1319;52.346;13.096;2023-11-22T08:20:56;31.43;;;12.47;;
2618;SDS011;1319;52.346;13.096;2023-11-22T08:23:22;27.40;;;12.00;;
2618;SDS011;1319;52.346;13.096;2023-11-22T08:25:47;22.30;;;11.17;;
2618;SDS011;1319;52.346;13.096;2023-11-22T08:28:12;24.10;;;11.87;;
2618;SDS011;1319;52.346;13.096;2023-11-22T08:30:38;27.47;;;11.67;;
2618;SDS011;1319;52.346;13.096;2023-11-22T08:33:06;24.13;;;11.13;;
2618;SDS011;1319;52.346;13.096;2023-11-22T08:35:31;24.90;;;11.10;;
2618;SDS011;1319;52.346;13.096;2023-11-22T08:37:56;19.43;;;9.73;;
2618;SDS011;1319;52.346;13.096;2023-11-22T08:40:22;23.70;;;10.00;;
2618;SDS011;1319;52.346;13.096;2023-11-22T08:42:48;18.37;;;9.47;;
2618;SDS011;1319;52.346;13.096;2023-11-22T08:45:13;18.47;;;9.63;;
2618;SDS011;1319;52.346;13.096;2023-11-22T08:47:41;19.57;;;9.37;;
2618;SDS011;1319;52.346;13.096;2023-11-22T08:50:09;16.77;;;8.83;;
2618;SDS011;1319;52.346;13.096;2023-11-22T08:52:38;16.70;;;8.40;;
2618;SDS011;1319;52.346;13.096;2023-11-22T08:55:05;19.00;;;8.57;;
2618;SDS011;1319;52.346;13.096;2023-11-22T08:57:32;13.43;;;7.37;;
2618;SDS011;1319;52.346;13.096;2023-11-22T08:59:57;15.60;;;7.30;;
2618;SDS011;1319;52.346;13.096;2023-11-22T09:02:26;12.13;;;7.13;;
2618;SDS011;1319;52.346;13.096;2023-11-22T09:04:53;15.53;;;6.60;;
2618;SDS011;1319;52.346;13.096;2023-11-22T09:07:19;11.97;;;7.00;;
2618;SDS011;1319;52.346;13.096;2023-11-22T09:09:47;12.83;;;6.80;;
2618;SDS011;1319;52.346;13.096;2023-11-22T09:12:12;14.50;;;6.40;;
2618;SDS011;1319;52.346;13.096;2023-11-22T09:14:38;11.50;;;6.60;;
2618;SDS011;1319;52.346;13.096;2023-11-22T09:17:05;11.00;;;6.30;;
2618;SDS011;1319;52.346;13.096;2023-11-22T09:19:31;12.03;;;6.10;;
2618;SDS011;1319;52.346;13.096;2023-11-22T09:21:56;9.80;;;6.00;;
2618;SDS011;1319;52.346;13.096;2023-11-22T09:24:22;15.80;;;6.20;;
2618;SDS011;1319;52.346;13.096;2023-11-22T09:26:47;10.43;;;6.37;;
2618;SDS011;1319;52.346;13.096;2023-11-22T09:29:12;10.87;;;5.73;;
2618;SDS011;1319;52.346;13.096;2023-11-22T09:31:39;11.33;;;6.57;;
2618;SDS011;1319;52.346;13.096;2023-11-22T09:34:04;9.30;;;5.77;;
2618;SDS011;1319;52.346;13.096;2023-11-22T09:36:30;10.27;;;5.80;;
2618;SDS011;1319;52.346;13.096;2023-11-22T09:38:57;10.67;;;6.27;;
2618;SDS011;1319;52.346;13.096;2023-11-22T09:41:23;9.80;;;6.30;;
2618;SDS011;1319;52.346;13.096;2023-11-22T09:43:50;9.17;;;6.03;;
2618;SDS011;1319;52.346;13.096;2023-11-22T09:46:15;9.97;;;6.27;;
2618;SDS011;1319;52.346;13.096;2023-11-22T09:48:44;11.63;;;5.70;;
2618;SDS011;1319;52.346;13.096;2023-11-22T09:51:15;9.67;;;5.70;;
2618;SDS011;1319;52.346;13.096;2023-11-22T09:53:56;8.83;;;5.37;;
2618;SDS011;1319;52.346;13.096;2023-11-22T09:56:24;10.63;;;5.97;;
2618;SDS011;1319;52.346;13.096;2023-11-22T09:58:51;11.30;;;5.93;;
2618;SDS011;1319;52.346;13.096;2023-11-22T10:01:19;10.23;;;5.67;;
2618;SDS011;1319;52.346;13.096;2023-11-22T10:03:45;10.87;;;5.73;;
2618;SDS011;1319;52.346;13.096;2023-11-22T10:06:11;9.73;;;6.17;;
2618;SDS011;1319;52.346;13.096;2023-11-22T10:08:36;12.10;;;5.60;;
2618;SDS011;1319;52.346;13.096;2023-11-22T10:11:03;8.83;;;5.53;;
2618;SDS011;1319;52.346;13.096;2023-11-22T10:13:29;10.53;;;5.63;;
2618;SDS011;1319;52.346;13.096;2023-11-22T10:15:54;12.77;;;5.50;;
2618;SDS011;1319;52.346;13.096;2023-11-22T10:18:20;13.17;;;5.60;;
2618;SDS011;1319;52.346;13.096;2023-11-22T10:20:46;8.93;;;5.37;;
2618;SDS011;1319;52.346;13.096;2023-11-22T10:23:18;7.23;;;5.17;;
2618;SDS011;1319;52.346;13.096;2023-11-22T10:25:48;9.40;;;5.57;;
2618;SDS011;1319;52.346;13.096;2023-11-22T10:28:17;13.03;;;6.50;;
2618;SDS011;1319;52.346;13.096;2023-11-22T10:30:43;11.80;;;5.97;;
2618;SDS011;1319;52.346;13.096;2023-11-22T10:33:09;10.23;;;6.17;;
2618;SDS011;1319;52.346;13.096;2023-11-22T10:35:38;9.80;;;5.73;;
2618;SDS011;1319;52.346;13.096;2023-11-22T10:38:03;10.77;;;5.87;;
2618;SDS011;1319;52.346;13.096;2023-11-22T10:40:32;10.43;;;5.80;;
2618;SDS011;1319;52.346;13.096;2023-11-22T10:42:57;8.47;;;5.80;;
2618;SDS011;1319;52.346;13.096;2023-11-22T10:45:23;9.40;;;6.20;;
2618;SDS011;1319;52.346;13.096;2023-11-22T10:47:52;8.70;;;5.40;;
2618;SDS011;1319;52.346;13.096;2023-11-22T10:50:19;8.77;;;6.30;;
2618;SDS011;1319;52.346;13.096;2023-11-22T10:52:44;9.47;;;5.40;;
2618;SDS011;1319;52.346;13.096;2023-11-22T10:55:11;10.80;;;5.73;;
2618;SDS011;1319;52.346;13.096;2023-11-22T10:57:38;11.00;;;6.00;;
2618;SDS011;1319;52.346;13.096;2023-11-22T11:00:05;12.70;;;5.93;;
2618;SDS011;1319;52.346;13.096;2023-11-22T11:02:33;10.07;;;5.23;;
2618;SDS011;1319;52.346;13.096;2023-11-22T11:05:02;10.80;;;5.90;;
2618;SDS011;1319;52.346;13.096;2023-11-22T11:07:32;7.37;;;5.30;;
2618;SDS011;1319;52.346;13.096;2023-11-22T11:10:02;8.63;;;5.77;;
2618;SDS011;1319;52.346;13.096;2023-11-22T11:12:27;12.63;;;5.37;;
2618;SDS011;1319;52.346;13.096;2023-11-22T11:14:53;7.90;;;5.90;;
2618;SDS011;1319;52.346;13.096;2023-11-22T11:17:18;7.83;;;5.93;;
2618;SDS011;1319;52.346;13.096;2023-11-22T11:19:44;7.50;;;5.90;;
2618;SDS011;1319;52.346;13.096;2023-11-22T11:22:09;8.60;;;5.87;;
2618;SDS011;1319;52.346;13.096;2023-11-22T11:24:39;10.87;;;5.67;;
2618;SDS011;1319;52.346;13.096;2023-11-22T11:27:05;8.70;;;6.10;;
2618;SDS011;1319;52.346;13.096;2023-11-22T11:29:31;9.07;;;5.40;;
2618;SDS011;1319;52.346;13.096;2023-11-22T11:31:57;8.20;;;5.40;;
2618;SDS011;1319;52.346;13.096;2023-11-22T11:34:23;7.70;;;5.80;;
2618;SDS011;1319;52.346;13.096;2023-11-22T11:36:48;9.27;;;6.13;;
2618;SDS011;1319;52.346;13.096;2023-11-22T11:39:21;7.60;;;5.73;;
2618;SDS011;1319;52.346;13.096;2023-11-22T11:41:49;11.53;;;5.93;;
2618;SDS011;1319;52.346;13.096;2023-11-22T11:44:14;8.00;;;5.60;;
2618;SDS011;1319;52.346;13.096;2023-11-22T11:46:41;6.23;;;5.40;;
2618;SDS011;1319;52.346;13.096;2023-11-22T11:49:06;7.30;;;6.00;;
2618;SDS011;1319;52.346;13.096;2023-11-22T11:51:35;8.57;;;7.07;;
2618;SDS011;1319;52.346;13.096;2023-11-22T11:54:01;7.67;;;6.80;;
2618;SDS011;1319;52.346;13.096;2023-11-22T11:56:26;12.03;;;8.30;;
2618;SDS011;1319;52.346;13.096;2023-11-22T11:58:55;7.60;;;6.80;;
2618;SDS011;1319;52.346;13.096;2023-11-22T12:01:22;6.90;;;5.77;;
2618;SDS011;1319;52.346;13.096;2023-11-22T12:03:48;6.47;;;5.40;;
2618;SDS011;1319;52.346;13.096;2023-11-22T12:06:17;8.77;;;6.00;;
2618;SDS011;1319;52.346;13.096;2023-11-22T12:08:42;6.93;;;5.00;;
2618;SDS011;1319;52.346;13.096;2023-11-22T12:11:08;7.90;;;5.47;;
2618;SDS011;1319;52.346;13.096;2023-11-22T12:13:33;7.40;;;5.80;;
2618;SDS011;1319;52.346;13.096;2023-11-22T12:15:59;6.80;;;5.43;;
2618;SDS011;1319;52.346;13.096;2023-11-22T12:18:25;7.17;;;5.63;;
2618;SDS011;1319;52.346;13.096;2023-11-22T12:20:54;7.90;;;5.73;;
2618;SDS011;1319;52.346;13.096;2023-11-22T12:23:20;7.63;;;6.00;;
2618;SDS011;1319;52.346;13.096;2023-11-22T12:25:46;7.77;;;5.90;;
2618;SDS011;1319;52.346;13.096;2023-11-22T12:28:12;9.73;;;6.17;;
2618;SDS011;1319;52.346;13.096;2023-11-22T12:30:39;9.10;;;5.77;;
2618;SDS011;1319;52.346;13.096;2023-11-22T12:33:07;9.67;;;6.23;;
2618;SDS011;1319;52.346;13.096;2023-11-22T12:35:32;8.10;;;5.60;;
2618;SDS011;1319;52.346;13.096;2023-11-22T12:38:02;9.67;;;5.90;;
2618;SDS011;1319;52.346;13.096;2023-11-22T12:40:29;10.07;;;5.90;;
2618;SDS011;1319;52.346;13.096;2023-11-22T12:42:58;12.83;;;6.27;;
2618;SDS011;1319;52.346;13.096;2023-11-22T12:45:24;10.00;;;5.43;;
2618;SDS011;1319;52.346;13.096;2023-11-22T12:47:52;8.47;;;5.73;;
2618;SDS011;1319;52.346;13.096;2023-11-22T12:53:11;8.83;;;5.83;;
2618;SDS011;1319;52.346;13.096;2023-11-22T12:55:37;8.30;;;5.70;;
2618;SDS011;1319;52.346;13.096;2023-11-22T12:58:03;8.97;;;5.80;;
2618;SDS011;1319;52.346;13.096;2023-11-22T13:00:28;8.83;;;5.53;;
2618;SDS011;1319;52.346;13.096;2023-11-22T13:02:55;8.03;;;5.70;;
2618;SDS011;1319;52.346;13.096;2023-11-22T13:05:21;9.37;;;5.37;;
2618;SDS011;1319;52.346;13.096;2023-11-22T13:07:46;11.73;;;6.30;;
2618;SDS011;1319;52.346;13.096;2023-11-22T13:10:12;7.43;;;5.53;;
2618;SDS011;1319;52.346;13.096;2023-11-22T13:12:41;8.00;;;5.50;;
2618;SDS011;1319;52.346;13.096;2023-11-22T13:15:08;10.23;;;6.07;;
2618;SDS011;1319;52.346;13.096;2023-11-22T13:17:36;6.63;;;5.10;;
2618;SDS011;1319;52.346;13.096;2023-11-22T13:20:02;7.30;;;5.23;;
2618;SDS011;1319;52.346;13.096;2023-11-22T13:22:27;9.27;;;5.33;;
2618;SDS011;1319;52.346;13.096;2023-11-22T13:24:52;7.73;;;5.33;;
2618;SDS011;1319;52.346;13.096;2023-11-22T13:27:18;7.97;;;5.83;;
2618;SDS011;1319;52.346;13.096;2023-11-22T13:29:43;12.00;;;5.87;;
2618;SDS011;1319;52.346;13.096;2023-11-22T13:32:09;10.43;;;6.00;;
2618;SDS011;1319;52.346;13.096;2023-11-22T13:34:34;8.27;;;5.60;;
2618;SDS011;1319;52.346;13.096;2023-11-22T13:36:59;12.73;;;5.90;;
2618;SDS011;1319;52.346;13.096;2023-11-22T13:39:25;9.13;;;5.87;;
2618;SDS011;1319;52.346;13.096;2023-11-22T13:41:50;9.53;;;5.40;;
2618;SDS011;1319;52.346;13.096;2023-11-22T13:44:16;11.07;;;6.40;;
2618;SDS011;1319;52.346;13.096;2023-11-22T13:46:43;9.63;;;6.10;;
2618;SDS011;1319;52.346;13.096;2023-11-22T13:49:08;8.23;;;5.83;;
2618;SDS011;1319;52.346;13.096;2023-11-22T13:51:34;8.87;;;5.70;;
2618;SDS011;1319;52.346;13.096;2023-11-22T13:54:00;12.97;;;6.67;;
2618;SDS011;1319;52.346;13.096;2023-11-22T13:56:25;11.67;;;6.00;;
2618;SDS011;1319;52.346;13.096;2023-11-22T13:58:51;8.40;;;5.80;;
2618;SDS011;1319;52.346;13.096;2023-11-22T14:01:16;12.70;;;6.20;;
2618;SDS011;1319;52.346;13.096;2023-11-22T14:03:46;10.40;;;6.03;;
2618;SDS011;1319;52.346;13.096;2023-11-22T14:06:12;10.17;;;6.00;;
2618;SDS011;1319;52.346;13.096;2023-11-22T14:08:41;9.70;;;5.50;;
2618;SDS011;1319;52.346;13.096;2023-11-22T14:11:06;10.57;;;6.00;;
2618;SDS011;1319;52.346;13.096;2023-11-22T14:13:32;9.40;;;5.30;;
2618;SDS011;1319;52.346;13.096;2023-11-22T14:15:57;8.27;;;5.60;;
2618;SDS011;1319;52.346;13.096;2023-11-22T14:18:22;8.83;;;5.70;;
2618;SDS011;1319;52.346;13.096;2023-11-22T14:20:49;9.70;;;5.33;;
2618;SDS011;1319;52.346;13.096;2023-11-22T14:23:15;12.50;;;6.00;;
2618;SDS011;1319;52.346;13.096;2023-11-22T14:25:40;10.23;;;5.93;;
2618;SDS011;1319;52.346;13.096;2023-11-22T14:28:06;8.97;;;5.73;;
2618;SDS011;1319;52.346;13.096;2023-11-22T14:30:31;8.20;;;5.50;;
2618;SDS011;1319;52.346;13.096;2023-11-22T14:33:00;11.43;;;6.23;;
2618;SDS011;1319;52.346;13.096;2023-11-22T14:35:25;9.13;;;5.37;;
2618;SDS011;1319;52.346;13.096;2023-11-22T14:37:51;11.27;;;6.33;;
2618;SDS011;1319;52.346;13.096;2023-11-22T14:40:18;11.03;;;7.07;;
2618;SDS011;1319;52.346;13.096;2023-11-22T14:42:45;10.17;;;6.50;;
2618;SDS011;1319;52.346;13.096;2023-11-22T14:45:12;10.40;;;6.70;;